PWSweather.com
Personal Weather Stations
Station Observations
KMAMEDFI2
Medfield, MA 02052

Medfield, MA 02052

Lat: 42.1900822, Lon: -71.3296889

Elevation: 138

Station Type: Rainwise WS MK-III

http://www.medfieldweather.com

High Low Average
Temperature 45.4°F7.4°C 32.4°F0.2°C 37.1°F2.8°C
Dew Point 39.2°F4.0°C 25.2°F-3.8°C 32.0°F0.0°C
Winds 12.7 mph 20.4 kmh Calm Calm 5.0 mph WSW8.0 kmh WSW
Wind Gusts 23.0 mph37.0 kmh -- 8.0 mph12.9 kmh
Humidity 96% 69% 82%
Pressure 29.54 in1000.3 mb 29.29 in991.9 mb -
Precipitation 0.10 in2.5 mm - -
Hour Temp Dew Point Humidity Winds Wind Gusts Pressure Precip Precip Rate Daily Precip Total
12:00 AM 33.0°F0.6°C 31.7°F-0.2°C 95% Calm Calm -- 29.57 in1001.4 mb - 0.00 in0.0 mm 0.05 in1.3 mm
12:10 AM 33.0°F0.6°C 31.7°F-0.2°C 95% Calm Calm -- 29.57 in1001.4 mb - 0.00 in0.0 mm 0.05 in1.3 mm
12:20 AM 33.0°F0.6°C 31.7°F-0.2°C 95% Calm Calm -- 29.56 in1001.0 mb - 0.00 in0.0 mm 0.05 in1.3 mm
12:30 AM 32.9°F0.5°C 31.6°F-0.2°C 95% Calm Calm -- 29.55 in1000.7 mb - 0.00 in0.0 mm 0.05 in1.3 mm
12:40 AM 32.9°F0.5°C 31.6°F-0.2°C 95% Calm Calm -- 29.55 in1000.7 mb - 0.00 in0.0 mm 0.05 in1.3 mm
12:50 AM 32.9°F0.5°C 31.6°F-0.2°C 95% 1.2 mph WNW1.9 kmh WNW 1.2 mph1.9 kmh 29.54 in1000.3 mb - 0.00 in0.0 mm 0.05 in1.3 mm
01:00 AM 32.9°F0.5°C 31.6°F-0.2°C 95% 1.2 mph W1.9 kmh W 2.3 mph3.7 kmh 29.54 in1000.3 mb - 0.00 in0.0 mm 0.00 in0.0 mm
01:10 AM 32.9°F0.5°C 31.6°F-0.2°C 95% Calm Calm -- 29.53 in1000.0 mb - 0.00 in0.0 mm 0.00 in0.0 mm
01:20 AM 32.8°F0.4°C 31.5°F-0.3°C 95% Calm Calm -- 29.52 in999.7 mb - 0.00 in0.0 mm 0.00 in0.0 mm
01:30 AM 32.7°F0.4°C 31.4°F-0.3°C 95% Calm Calm -- 29.52 in999.7 mb - 0.00 in0.0 mm 0.00 in0.0 mm
01:40 AM 32.7°F0.4°C 31.4°F-0.3°C 95% Calm Calm -- 29.51 in999.3 mb - 0.00 in0.0 mm 0.00 in0.0 mm
01:50 AM 32.7°F0.4°C 31.4°F-0.3°C 95% Calm Calm -- 29.50 in999.0 mb - 0.00 in0.0 mm 0.00 in0.0 mm
02:00 AM 32.6°F0.3°C 31.3°F-0.4°C 95% Calm Calm -- 29.50 in999.0 mb - 0.00 in0.0 mm 0.00 in0.0 mm
02:10 AM 32.6°F0.3°C 31.3°F-0.4°C 95% Calm Calm -- 29.49 in998.6 mb - 0.00 in0.0 mm 0.00 in0.0 mm
02:20 AM 32.6°F0.3°C 31.3°F-0.4°C 95% Calm Calm -- 29.48 in998.3 mb - 0.00 in0.0 mm 0.00 in0.0 mm
02:30 AM 32.6°F0.3°C 31.3°F-0.4°C 95% Calm Calm -- 29.48 in998.3 mb - 0.00 in0.0 mm 0.00 in0.0 mm
02:40 AM 32.5°F0.3°C 31.2°F-0.4°C 95% Calm Calm -- 29.47 in998.0 mb - 0.00 in0.0 mm 0.00 in0.0 mm
02:50 AM 32.5°F0.3°C 31.2°F-0.4°C 95% 1.2 mph ESE1.9 kmh ESE 1.2 mph1.9 kmh 29.46 in997.6 mb - 0.00 in0.0 mm 0.00 in0.0 mm
03:00 AM 32.5°F0.3°C 31.2°F-0.4°C 95% Calm Calm -- 29.46 in997.6 mb - 0.00 in0.0 mm 0.00 in0.0 mm
03:10 AM 32.4°F0.2°C 31.1°F-0.5°C 95% 1.2 mph SSE1.9 kmh SSE 2.3 mph3.7 kmh 29.45 in997.3 mb - 0.00 in0.0 mm 0.00 in0.0 mm
03:20 AM 32.5°F0.3°C 31.2°F-0.4°C 95% 4.6 mph WSW7.4 kmh WSW 5.8 mph9.3 kmh 29.45 in997.3 mb - 0.00 in0.0 mm 0.00 in0.0 mm
03:30 AM 32.5°F0.3°C 31.2°F-0.4°C 95% 2.3 mph W3.7 kmh W 2.3 mph3.7 kmh 29.48 in998.3 mb - 0.00 in0.0 mm 0.00 in0.0 mm
03:40 AM 32.6°F0.3°C 31.3°F-0.4°C 95% 1.2 mph WNW1.9 kmh WNW 1.2 mph1.9 kmh 29.46 in997.6 mb - 0.00 in0.0 mm 0.00 in0.0 mm
03:50 AM 32.5°F0.3°C 31.2°F-0.4°C 95% Calm Calm -- 29.44 in997.0 mb - 0.00 in0.0 mm 0.00 in0.0 mm
04:00 AM 32.5°F0.3°C 31.2°F-0.4°C 95% Calm Calm -- 29.44 in997.0 mb - 0.00 in0.0 mm 0.00 in0.0 mm
04:10 AM 32.6°F0.3°C 31.3°F-0.4°C 95% Calm Calm 1.2 mph1.9 kmh 29.44 in997.0 mb - 0.00 in0.0 mm 0.00 in0.0 mm
04:20 AM 32.6°F0.3°C 31.3°F-0.4°C 95% Calm Calm -- 29.43 in996.6 mb - 0.01 in0.3 mm 0.01 in0.3 mm
04:30 AM 32.6°F0.3°C 31.3°F-0.4°C 95% 1.2 mph SE1.9 kmh SE 1.2 mph1.9 kmh 29.42 in996.3 mb - 0.04 in1.0 mm 0.04 in1.0 mm
04:40 AM 32.5°F0.3°C 31.2°F-0.4°C 95% Calm Calm -- 29.41 in995.9 mb - 0.06 in1.5 mm 0.06 in1.5 mm
04:50 AM 32.5°F0.3°C 31.2°F-0.4°C 95% Calm Calm -- 29.39 in995.3 mb - 0.07 in1.8 mm 0.07 in1.8 mm
05:00 AM 32.5°F0.3°C 31.2°F-0.4°C 95% Calm Calm -- 29.39 in995.3 mb - 0.07 in1.8 mm 0.07 in1.8 mm
05:10 AM 32.5°F0.3°C 31.2°F-0.4°C 95% Calm Calm -- 29.38 in994.9 mb - 0.08 in2.0 mm 0.08 in2.0 mm
05:20 AM 32.5°F0.3°C 31.2°F-0.4°C 95% 1.2 mph SW1.9 kmh SW 2.3 mph3.7 kmh 29.36 in994.2 mb - 0.07 in1.8 mm 0.08 in2.0 mm
05:30 AM 32.5°F0.3°C 31.2°F-0.4°C 95% 2.3 mph SW3.7 kmh SW 2.3 mph3.7 kmh 29.36 in994.2 mb - 0.04 in1.0 mm 0.08 in2.0 mm
05:40 AM 32.6°F0.3°C 31.3°F-0.4°C 95% 2.3 mph SE3.7 kmh SE 2.3 mph3.7 kmh 29.36 in994.2 mb - 0.02 in0.5 mm 0.08 in2.0 mm
05:50 AM 32.6°F0.3°C 31.3°F-0.4°C 95% Calm Calm -- 29.35 in993.9 mb - 0.02 in0.5 mm 0.09 in2.3 mm
06:00 AM 32.6°F0.3°C 31.3°F-0.4°C 95% Calm Calm -- 29.35 in993.9 mb - 0.02 in0.5 mm 0.09 in2.3 mm
06:10 AM 32.7°F0.4°C 31.4°F-0.3°C 95% Calm Calm -- 29.34 in993.6 mb - 0.01 in0.3 mm 0.09 in2.3 mm
06:20 AM 32.7°F0.4°C 31.4°F-0.3°C 95% Calm Calm -- 29.34 in993.6 mb - 0.01 in0.3 mm 0.09 in2.3 mm
06:30 AM 32.8°F0.4°C 31.5°F-0.3°C 95% Calm Calm -- 29.33 in993.2 mb - 0.01 in0.3 mm 0.09 in2.3 mm
06:40 AM 32.8°F0.4°C 31.5°F-0.3°C 95% Calm Calm -- 29.33 in993.2 mb - 0.01 in0.3 mm 0.09 in2.3 mm
06:50 AM 32.9°F0.5°C 31.6°F-0.2°C 95% Calm Calm -- 29.33 in993.2 mb - 0.00 in0.0 mm 0.09 in2.3 mm
07:00 AM 32.9°F0.5°C 31.6°F-0.2°C 95% Calm Calm -- 29.33 in993.2 mb - 0.01 in0.3 mm 0.10 in2.5 mm
07:10 AM 33.0°F0.6°C 31.7°F-0.2°C 95% Calm Calm -- 29.32 in992.9 mb - 0.01 in0.3 mm 0.10 in2.5 mm
07:20 AM 33.1°F0.6°C 31.8°F-0.1°C 95% 1.2 mph W1.9 kmh W 1.2 mph1.9 kmh 29.32 in992.9 mb - 0.01 in0.3 mm 0.10 in2.5 mm
07:30 AM 33.2°F0.7°C 31.9°F-0.1°C 95% Calm Calm -- 29.31 in992.6 mb - 0.01 in0.3 mm 0.10 in2.5 mm
07:40 AM 33.3°F0.7°C 32.0°F0.0°C 95% Calm Calm -- 29.31 in992.6 mb - 0.01 in0.3 mm 0.10 in2.5 mm
07:50 AM 33.8°F1.0°C 32.5°F0.3°C 95% Calm Calm 2.3 mph3.7 kmh 29.31 in992.6 mb - 0.01 in0.3 mm 0.10 in2.5 mm
08:00 AM 34.6°F1.4°C 33.3°F0.7°C 95% Calm Calm -- 29.31 in992.6 mb - 0.00 in0.0 mm 0.10 in2.5 mm
08:10 AM 35.6°F2.0°C 34.3°F1.3°C 95% 1.2 mph NNW1.9 kmh NNW 2.3 mph3.7 kmh 29.31 in992.6 mb - 0.00 in0.0 mm 0.10 in2.5 mm
08:20 AM 36.5°F2.5°C 35.2°F1.8°C 95% 1.2 mph W1.9 kmh W 2.3 mph3.7 kmh 29.31 in992.6 mb - 0.00 in0.0 mm 0.10 in2.5 mm
08:30 AM 37.1°F2.8°C 35.8°F2.1°C 95% 4.6 mph WSW7.4 kmh WSW 9.2 mph14.8 kmh 29.31 in992.6 mb - 0.00 in0.0 mm 0.10 in2.5 mm
08:40 AM 37.5°F3.1°C 36.2°F2.3°C 95% 2.3 mph WSW3.7 kmh WSW 2.3 mph3.7 kmh 29.31 in992.6 mb - 0.00 in0.0 mm 0.10 in2.5 mm
08:50 AM 37.4°F3.0°C 36.1°F2.3°C 95% 2.3 mph SW3.7 kmh SW 5.8 mph9.3 kmh 29.31 in992.6 mb - 0.00 in0.0 mm 0.10 in2.5 mm
09:00 AM 37.4°F3.0°C 36.1°F2.3°C 95% 5.8 mph WSW9.3 kmh WSW 9.2 mph14.8 kmh 29.31 in992.6 mb - 0.00 in0.0 mm 0.10 in2.5 mm
09:10 AM 37.6°F3.1°C 36.3°F2.4°C 95% 6.9 mph WSW11.1 kmh WSW 8.1 mph13.0 kmh 29.31 in992.6 mb - 0.00 in0.0 mm 0.10 in2.5 mm
09:20 AM 37.8°F3.2°C 36.5°F2.5°C 95% 3.5 mph SW5.6 kmh SW 8.1 mph13.0 kmh 29.31 in992.6 mb - 0.00 in0.0 mm 0.10 in2.5 mm
09:30 AM 38.5°F3.6°C 37.5°F3.1°C 96% 3.5 mph WSW5.6 kmh WSW 9.2 mph14.8 kmh 29.31 in992.6 mb - 0.00 in0.0 mm 0.10 in2.5 mm
09:40 AM 38.8°F3.8°C 37.8°F3.2°C 96% 6.9 mph WSW11.1 kmh WSW 11.5 mph18.5 kmh 29.31 in992.6 mb - 0.00 in0.0 mm 0.10 in2.5 mm
09:50 AM 39.3°F4.1°C 38.3°F3.5°C 96% 4.6 mph W7.4 kmh W 5.8 mph9.3 kmh 29.31 in992.6 mb - 0.00 in0.0 mm 0.10 in2.5 mm
10:00 AM 39.7°F4.3°C 38.7°F3.7°C 96% 4.6 mph WSW7.4 kmh WSW 8.1 mph13.0 kmh 29.31 in992.6 mb - 0.00 in0.0 mm 0.10 in2.5 mm
10:10 AM 39.9°F4.4°C 38.9°F3.8°C 96% 4.6 mph SW7.4 kmh SW 8.1 mph13.0 kmh 29.31 in992.6 mb - 0.00 in0.0 mm 0.10 in2.5 mm
10:20 AM 40.2°F4.6°C 39.2°F4.0°C 96% 4.6 mph WSW7.4 kmh WSW 5.8 mph9.3 kmh 29.32 in992.9 mb - 0.00 in0.0 mm 0.10 in2.5 mm
10:30 AM 40.6°F4.8°C 38.7°F3.7°C 93% 5.8 mph SSW9.3 kmh SSW 5.8 mph9.3 kmh 29.32 in992.9 mb - 0.00 in0.0 mm 0.10 in2.5 mm
10:40 AM 40.9°F4.9°C 38.2°F3.4°C 90% 8.1 mph W13.0 kmh W 17.3 mph27.8 kmh 29.31 in992.6 mb - 0.00 in0.0 mm 0.10 in2.5 mm
10:50 AM 41.2°F5.1°C 37.9°F3.3°C 88% 9.2 mph W14.8 kmh W 10.4 mph16.7 kmh 29.32 in992.9 mb - 0.00 in0.0 mm 0.10 in2.5 mm
11:00 AM 41.8°F5.4°C 37.9°F3.3°C 86% 5.8 mph WSW9.3 kmh WSW 9.2 mph14.8 kmh 29.32 in992.9 mb - 0.00 in0.0 mm 0.10 in2.5 mm
11:10 AM 41.9°F5.5°C 37.1°F2.8°C 83% 12.7 mph W20.4 kmh W 23.0 mph37.0 kmh 29.31 in992.6 mb - 0.00 in0.0 mm 0.10 in2.5 mm
11:20 AM 42.3°F5.7°C 36.8°F2.7°C 81% 6.9 mph WSW11.1 kmh WSW 15.0 mph24.1 kmh 29.31 in992.6 mb - 0.00 in0.0 mm 0.10 in2.5 mm
11:30 AM 42.8°F6.0°C 37.1°F2.8°C 80% 12.7 mph WSW20.4 kmh WSW 16.1 mph25.9 kmh 29.31 in992.6 mb - 0.00 in0.0 mm 0.10 in2.5 mm
11:40 AM 42.9°F6.1°C 37.2°F2.9°C 80% 5.8 mph WNW9.3 kmh WNW 8.1 mph13.0 kmh 29.31 in992.6 mb - 0.00 in0.0 mm 0.10 in2.5 mm
11:50 AM 43.7°F6.5°C 37.3°F2.9°C 78% 5.8 mph WSW9.3 kmh WSW 16.1 mph25.9 kmh 29.31 in992.6 mb - 0.00 in0.0 mm 0.10 in2.5 mm
12:00 PM 44.2°F6.8°C 37.4°F3.0°C 77% 6.9 mph W11.1 kmh W 13.8 mph22.2 kmh 29.31 in992.6 mb - 0.00 in0.0 mm 0.10 in2.5 mm
12:10 PM 45.1°F7.3°C 37.6°F3.1°C 75% 4.6 mph WSW7.4 kmh WSW 11.5 mph18.5 kmh 29.31 in992.6 mb - 0.00 in0.0 mm 0.10 in2.5 mm
12:20 PM 45.4°F7.4°C 36.9°F2.7°C 72% 9.2 mph NW14.8 kmh NW 11.5 mph18.5 kmh 29.30 in992.2 mb - 0.00 in0.0 mm 0.10 in2.5 mm
12:30 PM 45.3°F7.4°C 36.8°F2.7°C 72% 11.5 mph WSW18.5 kmh WSW 23.0 mph37.0 kmh 29.30 in992.2 mb - 0.00 in0.0 mm 0.10 in2.5 mm
12:40 PM 44.2°F6.8°C 36.1°F2.3°C 73% 9.2 mph W14.8 kmh W 21.9 mph35.2 kmh 29.30 in992.2 mb - 0.00 in0.0 mm 0.10 in2.5 mm
12:50 PM 43.4°F6.3°C 36.0°F2.2°C 75% 6.9 mph WNW11.1 kmh WNW 11.5 mph18.5 kmh 29.30 in992.2 mb - 0.00 in0.0 mm 0.10 in2.5 mm
01:00 PM 42.9°F6.1°C 35.5°F1.9°C 75% 8.1 mph W13.0 kmh W 9.2 mph14.8 kmh 29.29 in991.9 mb - 0.00 in0.0 mm 0.10 in2.5 mm
01:10 PM 42.8°F6.0°C 36.1°F2.3°C 77% 8.1 mph WSW13.0 kmh WSW 11.5 mph18.5 kmh 29.29 in991.9 mb - 0.00 in0.0 mm 0.10 in2.5 mm
01:20 PM 42.6°F5.9°C 35.6°F2.0°C 76% 10.4 mph WSW16.7 kmh WSW 17.3 mph27.8 kmh 29.29 in991.9 mb - 0.00 in0.0 mm 0.10 in2.5 mm
01:30 PM 42.6°F5.9°C 35.9°F2.2°C 77% 9.2 mph NW14.8 kmh NW 8.1 mph13.0 kmh 29.29 in991.9 mb - 0.00 in0.0 mm 0.10 in2.5 mm
01:40 PM 42.5°F5.8°C 36.1°F2.3°C 78% 8.1 mph W13.0 kmh W 9.2 mph14.8 kmh 29.30 in992.2 mb - 0.00 in0.0 mm 0.10 in2.5 mm
01:50 PM 42.6°F5.9°C 35.9°F2.2°C 77% 9.2 mph W14.8 kmh W 11.5 mph18.5 kmh 29.30 in992.2 mb - 0.00 in0.0 mm 0.10 in2.5 mm
02:00 PM 42.8°F6.0°C 36.4°F2.4°C 78% 9.2 mph WSW14.8 kmh WSW 9.2 mph14.8 kmh 29.31 in992.6 mb - 0.00 in0.0 mm 0.10 in2.5 mm
02:10 PM 43.0°F6.1°C 36.3°F2.4°C 77% 10.4 mph W16.7 kmh W 16.1 mph25.9 kmh 29.31 in992.6 mb - 0.00 in0.0 mm 0.10 in2.5 mm
02:20 PM 43.3°F6.3°C 36.2°F2.3°C 76% 8.1 mph WSW13.0 kmh WSW 10.4 mph16.7 kmh 29.31 in992.6 mb - 0.00 in0.0 mm 0.10 in2.5 mm
02:30 PM 43.4°F6.3°C 36.3°F2.4°C 76% 8.1 mph WSW13.0 kmh WSW 9.2 mph14.8 kmh 29.31 in992.6 mb - 0.00 in0.0 mm 0.10 in2.5 mm
02:40 PM 43.7°F6.5°C 36.0°F2.2°C 74% 6.9 mph WNW11.1 kmh WNW 11.5 mph18.5 kmh 29.32 in992.9 mb - 0.00 in0.0 mm 0.10 in2.5 mm
02:50 PM 43.9°F6.6°C 36.1°F2.3°C 74% 9.2 mph W14.8 kmh W 10.4 mph16.7 kmh 29.33 in993.2 mb - 0.00 in0.0 mm 0.10 in2.5 mm
03:00 PM 44.0°F6.7°C 35.6°F2.0°C 72% 10.4 mph W16.7 kmh W 18.4 mph29.6 kmh 29.33 in993.2 mb - 0.00 in0.0 mm 0.10 in2.5 mm
03:10 PM 44.2°F6.8°C 35.7°F2.1°C 72% 3.5 mph WNW5.6 kmh WNW 10.4 mph16.7 kmh 29.34 in993.6 mb - 0.00 in0.0 mm 0.10 in2.5 mm
03:20 PM 44.2°F6.8°C 35.4°F1.9°C 71% 11.5 mph WSW18.5 kmh WSW 15.0 mph24.1 kmh 29.34 in993.6 mb - 0.00 in0.0 mm 0.10 in2.5 mm
03:30 PM 43.8°F6.6°C 35.4°F1.9°C 72% 9.2 mph W14.8 kmh W 18.4 mph29.6 kmh 29.35 in993.9 mb - 0.00 in0.0 mm 0.10 in2.5 mm
03:40 PM 43.5°F6.4°C 34.4°F1.3°C 70% 8.1 mph WNW13.0 kmh WNW 18.4 mph29.6 kmh 29.35 in993.9 mb - 0.00 in0.0 mm 0.10 in2.5 mm
03:50 PM 42.9°F6.1°C 33.4°F0.8°C 69% 5.8 mph WSW9.3 kmh WSW 18.4 mph29.6 kmh 29.35 in993.9 mb - 0.00 in0.0 mm 0.10 in2.5 mm
04:00 PM 42.4°F5.8°C 32.9°F0.5°C 69% 11.5 mph WSW18.5 kmh WSW 18.4 mph29.6 kmh 29.35 in993.9 mb - 0.00 in0.0 mm 0.10 in2.5 mm
04:10 PM 42.2°F5.7°C 33.1°F0.6°C 70% 6.9 mph WNW11.1 kmh WNW 15.0 mph24.1 kmh 29.35 in993.9 mb - 0.00 in0.0 mm 0.10 in2.5 mm
04:20 PM 42.2°F5.7°C 32.8°F0.4°C 69% 6.9 mph W11.1 kmh W 10.4 mph16.7 kmh 29.36 in994.2 mb - 0.00 in0.0 mm 0.10 in2.5 mm
04:30 PM 42.1°F5.6°C 33.0°F0.6°C 70% 6.9 mph NW11.1 kmh NW 15.0 mph24.1 kmh 29.36 in994.2 mb - 0.00 in0.0 mm 0.10 in2.5 mm
04:40 PM 41.9°F5.5°C 32.8°F0.4°C 70% 6.9 mph WSW11.1 kmh WSW 9.2 mph14.8 kmh 29.36 in994.2 mb - 0.00 in0.0 mm 0.10 in2.5 mm
04:50 PM 41.8°F5.4°C 33.4°F0.8°C 72% 6.9 mph WSW11.1 kmh WSW 9.2 mph14.8 kmh 29.37 in994.6 mb - 0.00 in0.0 mm 0.10 in2.5 mm
05:00 PM 41.6°F5.3°C 32.5°F0.3°C 70% 5.8 mph WNW9.3 kmh WNW 6.9 mph11.1 kmh 29.37 in994.6 mb - 0.00 in0.0 mm 0.10 in2.5 mm
05:10 PM 41.4°F5.2°C 32.3°F0.2°C 70% 5.8 mph WNW9.3 kmh WNW 6.9 mph11.1 kmh 29.37 in994.6 mb - 0.00 in0.0 mm 0.10 in2.5 mm
05:20 PM 41.2°F5.1°C 33.2°F0.7°C 73% 8.1 mph WSW13.0 kmh WSW 8.1 mph13.0 kmh 29.38 in994.9 mb - 0.00 in0.0 mm 0.10 in2.5 mm
05:30 PM 40.8°F4.9°C 33.2°F0.7°C 74% 6.9 mph WSW11.1 kmh WSW 15.0 mph24.1 kmh 29.38 in994.9 mb - 0.00 in0.0 mm 0.10 in2.5 mm
05:40 PM 40.4°F4.7°C 32.4°F0.2°C 73% 8.1 mph W13.0 kmh W 6.9 mph11.1 kmh 29.38 in994.9 mb - 0.00 in0.0 mm 0.10 in2.5 mm
05:50 PM 39.9°F4.4°C 32.3°F0.2°C 74% 3.5 mph WSW5.6 kmh WSW 5.8 mph9.3 kmh 29.38 in994.9 mb - 0.00 in0.0 mm 0.10 in2.5 mm
06:00 PM 39.6°F4.2°C 32.3°F0.2°C 75% 6.9 mph NW11.1 kmh NW 9.2 mph14.8 kmh 29.39 in995.3 mb - 0.00 in0.0 mm 0.10 in2.5 mm
06:10 PM 39.3°F4.1°C 32.4°F0.2°C 76% 3.5 mph WSW5.6 kmh WSW 15.0 mph24.1 kmh 29.39 in995.3 mb - 0.00 in0.0 mm 0.10 in2.5 mm
06:20 PM 38.9°F3.8°C 32.0°F0.0°C 76% 6.9 mph W11.1 kmh W 11.5 mph18.5 kmh 29.40 in995.6 mb - 0.00 in0.0 mm 0.10 in2.5 mm
06:30 PM 38.9°F3.8°C 31.3°F-0.4°C 74% 8.1 mph WSW13.0 kmh WSW 11.5 mph18.5 kmh 29.40 in995.6 mb - 0.00 in0.0 mm 0.10 in2.5 mm
06:40 PM 38.8°F3.8°C 31.2°F-0.4°C 74% 9.2 mph WSW14.8 kmh WSW 15.0 mph24.1 kmh 29.40 in995.6 mb - 0.00 in0.0 mm 0.10 in2.5 mm
06:50 PM 38.4°F3.6°C 30.8°F-0.7°C 74% 5.8 mph WSW9.3 kmh WSW 6.9 mph11.1 kmh 29.41 in995.9 mb - 0.00 in0.0 mm 0.10 in2.5 mm
07:00 PM 37.9°F3.3°C 29.7°F-1.3°C 72% 6.9 mph W11.1 kmh W 9.2 mph14.8 kmh 29.41 in995.9 mb - 0.00 in0.0 mm 0.10 in2.5 mm
07:10 PM 37.4°F3.0°C 29.2°F-1.6°C 72% 6.9 mph W11.1 kmh W 9.2 mph14.8 kmh 29.42 in996.3 mb - 0.00 in0.0 mm 0.10 in2.5 mm
07:20 PM 37.1°F2.8°C 28.6°F-1.9°C 71% 6.9 mph WNW11.1 kmh WNW 10.4 mph16.7 kmh 29.42 in996.3 mb - 0.00 in0.0 mm 0.10 in2.5 mm
07:30 PM 37.0°F2.8°C 28.1°F-2.2°C 70% 6.9 mph WSW11.1 kmh WSW 8.1 mph13.0 kmh 29.42 in996.3 mb - 0.00 in0.0 mm 0.10 in2.5 mm
07:40 PM 36.8°F2.7°C 28.3°F-2.1°C 71% 6.9 mph WSW11.1 kmh WSW 15.0 mph24.1 kmh 29.43 in996.6 mb - 0.00 in0.0 mm 0.10 in2.5 mm
07:50 PM 36.3°F2.4°C 28.1°F-2.2°C 72% 5.8 mph WSW9.3 kmh WSW 8.1 mph13.0 kmh 29.43 in996.6 mb - 0.00 in0.0 mm 0.10 in2.5 mm
08:00 PM 35.8°F2.1°C 27.7°F-2.4°C 72% 6.9 mph WSW11.1 kmh WSW 11.5 mph18.5 kmh 29.43 in996.6 mb - 0.00 in0.0 mm 0.10 in2.5 mm
08:10 PM 35.6°F2.0°C 27.1°F-2.7°C 71% 4.6 mph WSW7.4 kmh WSW 9.2 mph14.8 kmh 29.42 in996.3 mb - 0.00 in0.0 mm 0.10 in2.5 mm
08:20 PM 35.3°F1.8°C 26.8°F-2.9°C 71% 11.5 mph W18.5 kmh W 11.5 mph18.5 kmh 29.42 in996.3 mb - 0.00 in0.0 mm 0.10 in2.5 mm
08:30 PM 35.3°F1.8°C 26.5°F-3.1°C 70% 10.4 mph WSW16.7 kmh WSW 11.5 mph18.5 kmh 29.42 in996.3 mb - 0.00 in0.0 mm 0.10 in2.5 mm
08:40 PM 34.9°F1.6°C 26.4°F-3.1°C 71% 9.2 mph W14.8 kmh W 11.5 mph18.5 kmh 29.42 in996.3 mb - 0.00 in0.0 mm 0.10 in2.5 mm
08:50 PM 34.8°F1.6°C 26.4°F-3.1°C 71% 8.1 mph W13.0 kmh W 11.5 mph18.5 kmh 29.42 in996.3 mb - 0.00 in0.0 mm 0.10 in2.5 mm
09:00 PM 34.7°F1.5°C 26.2°F-3.2°C 71% 8.1 mph W13.0 kmh W 6.9 mph11.1 kmh 29.42 in996.3 mb - 0.00 in0.0 mm 0.10 in2.5 mm
09:10 PM 34.5°F1.4°C 26.4°F-3.1°C 72% 5.8 mph W9.3 kmh W 11.5 mph18.5 kmh 29.42 in996.3 mb - 0.00 in0.0 mm 0.10 in2.5 mm
09:20 PM 34.6°F1.4°C 26.1°F-3.3°C 71% 9.2 mph WSW14.8 kmh WSW 8.1 mph13.0 kmh 29.42 in996.3 mb - 0.00 in0.0 mm 0.10 in2.5 mm
09:30 PM 34.4°F1.3°C 26.0°F-3.3°C 71% 10.4 mph WNW16.7 kmh WNW 15.0 mph24.1 kmh 29.42 in996.3 mb - 0.00 in0.0 mm 0.10 in2.5 mm
09:40 PM 34.3°F1.3°C 26.2°F-3.2°C 72% 10.4 mph W16.7 kmh W 18.4 mph29.6 kmh 29.42 in996.3 mb - 0.00 in0.0 mm 0.10 in2.5 mm
09:50 PM 34.2°F1.2°C 26.1°F-3.3°C 72% 2.3 mph W3.7 kmh W 8.1 mph13.0 kmh 29.42 in996.3 mb - 0.00 in0.0 mm 0.10 in2.5 mm
10:00 PM 33.9°F1.1°C 25.5°F-3.6°C 71% 6.9 mph WSW11.1 kmh WSW 11.5 mph18.5 kmh 29.42 in996.3 mb - 0.00 in0.0 mm 0.10 in2.5 mm
10:10 PM 33.9°F1.1°C 25.5°F-3.6°C 71% 5.8 mph WSW9.3 kmh WSW 5.8 mph9.3 kmh 29.41 in995.9 mb - 0.00 in0.0 mm 0.10 in2.5 mm
10:20 PM 33.7°F0.9°C 25.3°F-3.7°C 71% 5.8 mph WSW9.3 kmh WSW 2.3 mph3.7 kmh 29.41 in995.9 mb - 0.00 in0.0 mm 0.10 in2.5 mm
10:30 PM 33.3°F0.7°C 25.6°F-3.6°C 73% 5.8 mph WSW9.3 kmh WSW 17.3 mph27.8 kmh 29.41 in995.9 mb - 0.00 in0.0 mm 0.10 in2.5 mm
10:40 PM 33.1°F0.6°C 25.4°F-3.7°C 73% 6.9 mph WSW11.1 kmh WSW 9.2 mph14.8 kmh 29.40 in995.6 mb - 0.00 in0.0 mm 0.10 in2.5 mm
10:50 PM 32.9°F0.5°C 25.5°F-3.6°C 74% 4.6 mph WSW7.4 kmh WSW 13.8 mph22.2 kmh 29.40 in995.6 mb - 0.00 in0.0 mm 0.10 in2.5 mm
11:00 PM 32.8°F0.4°C 25.7°F-3.5°C 75% 2.3 mph WSW3.7 kmh WSW 6.9 mph11.1 kmh 29.40 in995.6 mb - 0.00 in0.0 mm 0.10 in2.5 mm
11:10 PM 32.7°F0.4°C 25.6°F-3.6°C 75% 4.6 mph WSW7.4 kmh WSW 6.9 mph11.1 kmh 29.40 in995.6 mb - 0.00 in0.0 mm 0.10 in2.5 mm
11:20 PM 32.6°F0.3°C 25.9°F-3.4°C 76% 4.6 mph WSW7.4 kmh WSW 9.2 mph14.8 kmh 29.40 in995.6 mb - 0.00 in0.0 mm 0.10 in2.5 mm
11:30 PM 32.6°F0.3°C 25.9°F-3.4°C 76% 3.5 mph WSW5.6 kmh WSW 3.5 mph5.6 kmh 29.40 in995.6 mb - 0.00 in0.0 mm 0.10 in2.5 mm
11:40 PM 32.9°F0.5°C 25.8°F-3.4°C 75% 6.9 mph W11.1 kmh W 8.1 mph13.0 kmh 29.40 in995.6 mb - 0.00 in0.0 mm 0.10 in2.5 mm
11:50 PM 33.3°F0.7°C 25.9°F-3.4°C 74% 4.6 mph W7.4 kmh W 3.5 mph5.6 kmh 29.40 in995.6 mb - 0.00 in0.0 mm 0.10 in2.5 mm